F/V Renaissance II — FMEW — position and weather

sailwx.info

Track history (hours):
 
Tides and Currents Weather Stations Pressure Air Temp Water Temp Dewpoint Dewpoint Depression Visibility Wind Speed Wind Dir Waves Ship Positions

F/V Renaissance II

Last reported at 2016-Jul-26 21:33 UTC. Time now 2016-Jul-26 21:53 UTC.
Position N 46°30' W 001°47'.

Length 18 m.

Type: Fishing. MMSI: 228216600.

Date/timePositionNaut miles runAvg speedWind from/ knotsBaromVisibWave heightAir tempDewpointWater temp
2016-Jul-26 21:33N 46°30' W 001°47'0 0.0
2016-Jul-26 20:33N 46°30' W 001°47'0 0.0
2016-Jul-26 19:33N 46°30' W 001°47'0 0.0
2016-Jul-26 18:33N 46°30' W 001°47'5 4.9
2016-Jul-26 17:33N 46°25' W 001°46'8 8.0
2016-Jul-26 16:33N 46°17' W 001°44'1 0.6
2016-Jul-26 15:31N 46°17' W 001°45'2 1.9
2016-Jul-26 14:33N 46°15' W 001°44'1 1.0
2016-Jul-26 13:33N 46°15' W 001°45'1 0.7
2016-Jul-26 12:12N 46°15' W 001°44'1 0.8
2016-Jul-26 11:33N 46°15' W 001°44'1 0.7
2016-Jul-26 10:32N 46°16' W 001°43'3 2.8
2016-Jul-26 09:33N 46°18' W 001°45'3 2.6
2016-Jul-26 08:33N 46°16' W 001°44'1 0.6
2016-Jul-26 07:33N 46°16' W 001°44'1 0.7
2016-Jul-26 06:33N 46°17' W 001°45'0 0.3
2016-Jul-26 05:33N 46°17' W 001°45'8 8.2
2016-Jul-26 04:33N 46°25' W 001°46'5 4.9
2016-Jul-26 03:33N 46°30' W 001°47'0 0.0
2016-Jul-26 02:33N 46°30' W 001°47'0 0.0
2016-Jul-26 01:33N 46°30' W 001°47'0 0.0
2016-Jul-26 00:33N 46°30' W 001°47'0 0.0
2016-Jul-25 23:33N 46°30' W 001°47'0 0.0
2016-Jul-25 22:34N 46°30' W 001°47'0 0.0
2016-Jul-25 21:33N 46°30' W 001°47'0 0.0
2016-Jul-25 20:33N 46°30' W 001°47'0 0.0
2016-Jul-25 19:33N 46°30' W 001°47'0 0.0
2016-Jul-25 18:33N 46°30' W 001°47'0 0.0
2016-Jul-25 17:33N 46°30' W 001°47'0 0.0
2016-Jul-25 16:33N 46°30' W 001°47'0 0.0
2016-Jul-25 15:33N 46°30' W 001°47'0 0.0
2016-Jul-25 14:33N 46°30' W 001°47'0 0.0
2016-Jul-25 13:33N 46°30' W 001°47'0 0.0
2016-Jul-25 12:33N 46°30' W 001°47'0 0.0
2016-Jul-25 11:33N 46°30' W 001°47'0 0.0
2016-Jul-25 10:33N 46°30' W 001°47'0 0.0
2016-Jul-25 09:33N 46°30' W 001°47'0 0.2
2016-Jul-25 08:33N 46°30' W 001°48'0 0.0
2016-Jul-25 07:33N 46°30' W 001°48'0 0.2
2016-Jul-25 06:33N 46°30' W 001°47'0 0.0
2016-Jul-25 05:33N 46°30' W 001°47'0 0.0
2016-Jul-25 04:33N 46°30' W 001°47'0 0.0
2016-Jul-25 03:33N 46°30' W 001°47'0 0.0
2016-Jul-25 02:33N 46°30' W 001°47'0 0.0
2016-Jul-25 01:33N 46°30' W 001°47'0 0.0
2016-Jul-25 00:33N 46°30' W 001°47'0 0.0
2016-Jul-24 23:33N 46°30' W 001°47'0 0.0
2016-Jul-24 22:33N 46°30' W 001°47'0 0.0
2016-Jul-24 21:33N 46°30' W 001°47'0 0.0
2016-Jul-24 20:33N 46°30' W 001°47'0 0.0
2016-Jul-24 19:33N 46°30' W 001°47'0 0.1
2016-Jul-24 18:33N 46°30' W 001°47'5 4.7
2016-Jul-24 17:33N 46°28' W 001°53'0 0.5
2016-Jul-24 16:33N 46°27' W 001°53'2 1.7
2016-Jul-24 15:33N 46°28' W 001°55'7 6.9
2016-Jul-24 14:33N 46°23' W 001°49'6 6.3
2016-Jul-24 13:33N 46°17' W 001°44'1 0.5
2016-Jul-24 12:33N 46°17' W 001°45'0 0.5
2016-Jul-24 11:33N 46°17' W 001°44'1 0.9
2016-Jul-24 10:33N 46°18' W 001°44'1 0.9
2016-Jul-24 09:33N 46°17' W 001°44'0 0.4
2016-Jul-24 08:33N 46°17' W 001°44'1 0.8
2016-Jul-24 07:33N 46°18' W 001°45'1 1.0
2016-Jul-24 06:33N 46°17' W 001°44'1 0.8
2016-Jul-24 05:33N 46°17' W 001°43'7 7.0
2016-Jul-24 04:33N 46°24' W 001°46'6 5.9
2016-Jul-24 03:33N 46°30' W 001°47'0 0.0
2016-Jul-24 02:33N 46°30' W 001°47'0 0.0
2016-Jul-24 01:33N 46°30' W 001°47'0 0.0
2016-Jul-24 00:33N 46°30' W 001°47'0 0.0
2016-Jul-23 23:33N 46°30' W 001°47'0 0.0
2016-Jul-23 22:33N 46°30' W 001°47'0 0.0
2016-Jul-23 21:33N 46°30' W 001°47'0 0.0
2016-Jul-23 20:33N 46°30' W 001°47'0 0.0
2016-Jul-23 19:33N 46°30' W 001°47'0 0.0
2016-Jul-23 18:33N 46°30' W 001°47'0 0.0
2016-Jul-23 17:33N 46°30' W 001°47'0 0.4
2016-Jul-23 16:33N 46°30' W 001°48'9 8.5
2016-Jul-23 15:33N 46°21' W 001°44'3 3.0
2016-Jul-23 14:33N 46°18' W 001°44'0 0.3
2016-Jul-23 13:33N 46°18' W 001°44'2 1.6
2016-Jul-23 12:33N 46°17' W 001°43'1 0.5
2016-Jul-23 11:33N 46°17' W 001°44'2 2.1
2016-Jul-23 10:33N 46°15' W 001°44'2 1.5
2016-Jul-23 09:33N 46°16' W 001°42'1 1.4
2016-Jul-23 08:33N 46°16' W 001°44'1 0.7
2016-Jul-23 07:27N 46°17' W 001°45'1 0.7
2016-Jul-23 06:33N 46°17' W 001°44'8 4.1
2016-Jul-23 04:33N 46°25' W 001°46'5 5.2
2016-Jul-23 03:33N 46°30' W 001°47'0 0.0
2016-Jul-23 02:33N 46°30' W 001°47'0 0.0
2016-Jul-23 01:33N 46°30' W 001°47'0 0.0
2016-Jul-23 00:33N 46°30' W 001°47'0 0.0
2016-Jul-22 23:33N 46°30' W 001°47'0 0.0
2016-Jul-22 22:33N 46°30' W 001°47'0 0.0
2016-Jul-22 21:33N 46°30' W 001°47'0 0.0
2016-Jul-22 20:33N 46°30' W 001°47'0 0.0
2016-Jul-22 19:33N 46°30' W 001°47'0 0.0
2016-Jul-22 18:33N 46°30' W 001°47'0 0.0
2016-Jul-22 17:33N 46°30' W 001°47'0 0.0
2016-Jul-22 16:33N 46°30' W 001°47'0 0.0
2016-Jul-22 15:33N 46°30' W 001°47'0 0.0
2016-Jul-22 14:33N 46°30' W 001°47'0 0.0
2016-Jul-22 13:33N 46°30' W 001°47'0 0.0
2016-Jul-22 12:33N 46°30' W 001°47'0 0.0
2016-Jul-22 11:33N 46°30' W 001°47'0 0.0
2016-Jul-22 10:33N 46°30' W 001°47'0 0.0
2016-Jul-22 09:33N 46°30' W 001°47'0 0.0
2016-Jul-22 08:33N 46°30' W 001°47'0 0.0
2016-Jul-22 07:33N 46°30' W 001°47'0 0.0
2016-Jul-22 05:33N 46°30' W 001°47'0 0.0
2016-Jul-22 04:33N 46°30' W 001°47'0 0.0
2016-Jul-22 03:33N 46°30' W 001°47'0 0.0
2016-Jul-22 02:33N 46°30' W 001°47'0 0.0
2016-Jul-22 01:33N 46°30' W 001°47'0 0.0
2016-Jul-22 00:33N 46°30' W 001°47'0 0.0
2016-Jul-21 23:33N 46°30' W 001°47'0 0.0
2016-Jul-21 22:33N 46°30' W 001°47'0 0.0
2016-Jul-21 21:33N 46°30' W 001°47'0 0.0
2016-Jul-21 20:33N 46°30' W 001°47'0 0.0
2016-Jul-21 19:33N 46°30' W 001°47'0 0.0
2016-Jul-21 18:33N 46°30' W 001°47'0 0.0
2016-Jul-21 17:33N 46°30' W 001°47'0 0.0
2016-Jul-21 16:33N 46°30' W 001°47'0 0.0
2016-Jul-21 15:33N 46°30' W 001°47'4 3.9
2016-Jul-21 14:33N 46°27' W 001°52'1 1.5
2016-Jul-21 13:33N 46°28' W 001°50'3 2.6
2016-Jul-21 12:33N 46°30' W 001°47'0 0.0
2016-Jul-21 11:33N 46°30' W 001°47'0 0.0
2016-Jul-21 10:33N 46°30' W 001°47'0 0.0
2016-Jul-21 09:33N 46°30' W 001°47'0 0.0
2016-Jul-21 08:33N 46°30' W 001°47'0 0.0
2016-Jul-21 07:33N 46°30' W 001°47'0 0.0
2016-Jul-21 06:31N 46°30' W 001°47'0 0.0
2016-Jul-21 05:33N 46°30' W 001°47'0 0.0
2016-Jul-21 04:33N 46°30' W 001°47'0 0.0
2016-Jul-21 03:33N 46°30' W 001°47'0 0.0
2016-Jul-21 02:33N 46°30' W 001°47'0 0.0
2016-Jul-21 01:34N 46°30' W 001°47'0 0.0
2016-Jul-21 00:33N 46°30' W 001°47'0 0.0
2016-Jul-20 23:33N 46°30' W 001°47'0 0.0
2016-Jul-20 22:33N 46°30' W 001°47'0 0.0
2016-Jul-20 21:33N 46°30' W 001°47'0 0.0
2016-Jul-20 20:33N 46°30' W 001°47'0 0.0
2016-Jul-20 19:33N 46°30' W 001°47'0 0.0
2016-Jul-20 18:33N 46°30' W 001°47'0 0.0
2016-Jul-20 17:33N 46°30' W 001°47'0 0.0
2016-Jul-20 16:33N 46°30' W 001°47'5 5.3
2016-Jul-20 15:33N 46°27' W 001°54'5 5.0
2016-Jul-20 14:33N 46°29' W 001°47'1 1.1
2016-Jul-20 13:33N 46°30' W 001°47'0 0.0
2016-Jul-20 12:33N 46°30' W 001°47'0 0.0
2016-Jul-20 11:33N 46°30' W 001°47'0 0.0
2016-Jul-20 10:33N 46°30' W 001°47'0 0.0
2016-Jul-20 09:34N 46°30' W 001°47'0 0.1
2016-Jul-20 08:33N 46°30' W 001°47'0 0.0
2016-Jul-20 07:18N 46°30' W 001°47'0 0.0
2016-Jul-20 06:34N 46°30' W 001°47'0 0.0
2016-Jul-20 05:33N 46°30' W 001°47'0 0.0
2016-Jul-20 04:32N 46°30' W 001°47'0 0.0
2016-Jul-20 03:32N 46°30' W 001°47'0 0.0
2016-Jul-20 02:34N 46°30' W 001°47'0 0.0
2016-Jul-20 01:33N 46°30' W 001°47'0 0.0
2016-Jul-20 00:33N 46°30' W 001°47'0 0.0
2016-Jul-19 23:33N 46°30' W 001°47'0 0.0
2016-Jul-19 22:33N 46°30' W 001°47'0 0.0
2016-Jul-19 21:33N 46°30' W 001°47'0 0.0
2016-Jul-19 20:30N 46°30' W 001°47'0 0.0
2016-Jul-19 19:33N 46°30' W 001°47'0 0.0
2016-Jul-19 18:15N 46°30' W 001°47'0 0.0
2016-Jul-19 17:25N 46°30' W 001°47'0 0.0
2016-Jul-19 16:24N 46°30' W 001°47'0 0.0
2016-Jul-19 14:24N 46°30' W 001°47'0 0.0
2016-Jul-19 13:33N 46°30' W 001°47'0 0.0
2016-Jul-19 12:33N 46°30' W 001°47'0 0.0
2016-Jul-19 11:33N 46°30' W 001°47'0 0.0
2016-Jul-19 10:33N 46°30' W 001°47'0 0.0
2016-Jul-19 09:33N 46°30' W 001°47'0 0.0
2016-Jul-19 08:33N 46°30' W 001°47'0 0.0
2016-Jul-19 07:33N 46°30' W 001°47'0 0.0
2016-Jul-19 06:33N 46°30' W 001°47'  
Track history (hours):
 
Tides and Currents Weather Stations Pressure Air Temp Water Temp Dewpoint Dewpoint Depression Visibility Wind Speed Wind Dir Waves Ship Positions

F/V Renaissance II

Last reported at 2016-Jul-26 21:33 UTC. Time now 2016-Jul-26 21:53 UTC.
Position N 46°30' W 001°47'.

Length 18 m.

Type: Fishing. MMSI: 228216600.

Date/timePositionNaut miles runAvg speedWind from/ knotsBaromVisibWave heightAir tempDewpointWater temp
2016-Jul-26 21:33N 46°30' W 001°47'0 0.0
2016-Jul-26 20:33N 46°30' W 001°47'0 0.0
2016-Jul-26 19:33N 46°30' W 001°47'0 0.0
2016-Jul-26 18:33N 46°30' W 001°47'5 4.9
2016-Jul-26 17:33N 46°25' W 001°46'8 8.0
2016-Jul-26 16:33N 46°17' W 001°44'1 0.6
2016-Jul-26 15:31N 46°17' W 001°45'2 1.9
2016-Jul-26 14:33N 46°15' W 001°44'1 1.0
2016-Jul-26 13:33N 46°15' W 001°45'1 0.7
2016-Jul-26 12:12N 46°15' W 001°44'1 0.8
2016-Jul-26 11:33N 46°15' W 001°44'1 0.7
2016-Jul-26 10:32N 46°16' W 001°43'3 2.8
2016-Jul-26 09:33N 46°18' W 001°45'3 2.6
2016-Jul-26 08:33N 46°16' W 001°44'1 0.6
2016-Jul-26 07:33N 46°16' W 001°44'1 0.7
2016-Jul-26 06:33N 46°17' W 001°45'0 0.3
2016-Jul-26 05:33N 46°17' W 001°45'8 8.2
2016-Jul-26 04:33N 46°25' W 001°46'5 4.9
2016-Jul-26 03:33N 46°30' W 001°47'0 0.0
2016-Jul-26 02:33N 46°30' W 001°47'0 0.0
2016-Jul-26 01:33N 46°30' W 001°47'0 0.0
2016-Jul-26 00:33N 46°30' W 001°47'0 0.0
2016-Jul-25 23:33N 46°30' W 001°47'0 0.0
2016-Jul-25 22:34N 46°30' W 001°47'0 0.0
2016-Jul-25 21:33N 46°30' W 001°47'0 0.0
2016-Jul-25 20:33N 46°30' W 001°47'0 0.0
2016-Jul-25 19:33N 46°30' W 001°47'0 0.0
2016-Jul-25 18:33N 46°30' W 001°47'0 0.0
2016-Jul-25 17:33N 46°30' W 001°47'0 0.0
2016-Jul-25 16:33N 46°30' W 001°47'0 0.0
2016-Jul-25 15:33N 46°30' W 001°47'0 0.0
2016-Jul-25 14:33N 46°30' W 001°47'0 0.0
2016-Jul-25 13:33N 46°30' W 001°47'0 0.0
2016-Jul-25 12:33N 46°30' W 001°47'0 0.0
2016-Jul-25 11:33N 46°30' W 001°47'0 0.0
2016-Jul-25 10:33N 46°30' W 001°47'0 0.0
2016-Jul-25 09:33N 46°30' W 001°47'0 0.2
2016-Jul-25 08:33N 46°30' W 001°48'0 0.0
2016-Jul-25 07:33N 46°30' W 001°48'0 0.2
2016-Jul-25 06:33N 46°30' W 001°47'0 0.0
2016-Jul-25 05:33N 46°30' W 001°47'0 0.0
2016-Jul-25 04:33N 46°30' W 001°47'0 0.0
2016-Jul-25 03:33N 46°30' W 001°47'0 0.0
2016-Jul-25 02:33N 46°30' W 001°47'0 0.0
2016-Jul-25 01:33N 46°30' W 001°47'0 0.0
2016-Jul-25 00:33N 46°30' W 001°47'0 0.0
2016-Jul-24 23:33N 46°30' W 001°47'0 0.0
2016-Jul-24 22:33N 46°30' W 001°47'0 0.0
2016-Jul-24 21:33N 46°30' W 001°47'0 0.0
2016-Jul-24 20:33N 46°30' W 001°47'0 0.0
2016-Jul-24 19:33N 46°30' W 001°47'0 0.1
2016-Jul-24 18:33N 46°30' W 001°47'5 4.7
2016-Jul-24 17:33N 46°28' W 001°53'0 0.5
2016-Jul-24 16:33N 46°27' W 001°53'2 1.7
2016-Jul-24 15:33N 46°28' W 001°55'7 6.9
2016-Jul-24 14:33N 46°23' W 001°49'6 6.3
2016-Jul-24 13:33N 46°17' W 001°44'1 0.5
2016-Jul-24 12:33N 46°17' W 001°45'0 0.5
2016-Jul-24 11:33N 46°17' W 001°44'1 0.9
2016-Jul-24 10:33N 46°18' W 001°44'1 0.9
2016-Jul-24 09:33N 46°17' W 001°44'0 0.4
2016-Jul-24 08:33N 46°17' W 001°44'1 0.8
2016-Jul-24 07:33N 46°18' W 001°45'1 1.0
2016-Jul-24 06:33N 46°17' W 001°44'1 0.8
2016-Jul-24 05:33N 46°17' W 001°43'7 7.0
2016-Jul-24 04:33N 46°24' W 001°46'6 5.9
2016-Jul-24 03:33N 46°30' W 001°47'0 0.0
2016-Jul-24 02:33N 46°30' W 001°47'0 0.0
2016-Jul-24 01:33N 46°30' W 001°47'0 0.0
2016-Jul-24 00:33N 46°30' W 001°47'0 0.0
2016-Jul-23 23:33N 46°30' W 001°47'0 0.0
2016-Jul-23 22:33N 46°30' W 001°47'0 0.0
2016-Jul-23 21:33N 46°30' W 001°47'0 0.0
2016-Jul-23 20:33N 46°30' W 001°47'0 0.0
2016-Jul-23 19:33N 46°30' W 001°47'0 0.0
2016-Jul-23 18:33N 46°30' W 001°47'0 0.0
2016-Jul-23 17:33N 46°30' W 001°47'0 0.4
2016-Jul-23 16:33N 46°30' W 001°48'9 8.5
2016-Jul-23 15:33N 46°21' W 001°44'3 3.0
2016-Jul-23 14:33N 46°18' W 001°44'0 0.3
2016-Jul-23 13:33N 46°18' W 001°44'2 1.6
2016-Jul-23 12:33N 46°17' W 001°43'1 0.5
2016-Jul-23 11:33N 46°17' W 001°44'2 2.1
2016-Jul-23 10:33N 46°15' W 001°44'2 1.5
2016-Jul-23 09:33N 46°16' W 001°42'1 1.4
2016-Jul-23 08:33N 46°16' W 001°44'1 0.7
2016-Jul-23 07:27N 46°17' W 001°45'1 0.7
2016-Jul-23 06:33N 46°17' W 001°44'8 4.1
2016-Jul-23 04:33N 46°25' W 001°46'5 5.2
2016-Jul-23 03:33N 46°30' W 001°47'0 0.0
2016-Jul-23 02:33N 46°30' W 001°47'0 0.0
2016-Jul-23 01:33N 46°30' W 001°47'0 0.0
2016-Jul-23 00:33N 46°30' W 001°47'0 0.0
2016-Jul-22 23:33N 46°30' W 001°47'0 0.0
2016-Jul-22 22:33N 46°30' W 001°47'0 0.0
2016-Jul-22 21:33N 46°30' W 001°47'0 0.0
2016-Jul-22 20:33N 46°30' W 001°47'0 0.0
2016-Jul-22 19:33N 46°30' W 001°47'0 0.0
2016-Jul-22 18:33N 46°30' W 001°47'0 0.0
2016-Jul-22 17:33N 46°30' W 001°47'0 0.0
2016-Jul-22 16:33N 46°30' W 001°47'0 0.0
2016-Jul-22 15:33N 46°30' W 001°47'0 0.0
2016-Jul-22 14:33N 46°30' W 001°47'0 0.0
2016-Jul-22 13:33N 46°30' W 001°47'0 0.0
2016-Jul-22 12:33N 46°30' W 001°47'0 0.0
2016-Jul-22 11:33N 46°30' W 001°47'0 0.0
2016-Jul-22 10:33N 46°30' W 001°47'0 0.0
2016-Jul-22 09:33N 46°30' W 001°47'0 0.0
2016-Jul-22 08:33N 46°30' W 001°47'0 0.0
2016-Jul-22 07:33N 46°30' W 001°47'0 0.0
2016-Jul-22 05:33N 46°30' W 001°47'0 0.0
2016-Jul-22 04:33N 46°30' W 001°47'0 0.0
2016-Jul-22 03:33N 46°30' W 001°47'0 0.0
2016-Jul-22 02:33N 46°30' W 001°47'0 0.0
2016-Jul-22 01:33N 46°30' W 001°47'0 0.0
2016-Jul-22 00:33N 46°30' W 001°47'0 0.0
2016-Jul-21 23:33N 46°30' W 001°47'0 0.0
2016-Jul-21 22:33N 46°30' W 001°47'0 0.0
2016-Jul-21 21:33N 46°30' W 001°47'0 0.0
2016-Jul-21 20:33N 46°30' W 001°47'0 0.0
2016-Jul-21 19:33N 46°30' W 001°47'0 0.0
2016-Jul-21 18:33N 46°30' W 001°47'0 0.0
2016-Jul-21 17:33N 46°30' W 001°47'0 0.0
2016-Jul-21 16:33N 46°30' W 001°47'0 0.0
2016-Jul-21 15:33N 46°30' W 001°47'4 3.9
2016-Jul-21 14:33N 46°27' W 001°52'1 1.5
2016-Jul-21 13:33N 46°28' W 001°50'3 2.6
2016-Jul-21 12:33N 46°30' W 001°47'0 0.0
2016-Jul-21 11:33N 46°30' W 001°47'0 0.0
2016-Jul-21 10:33N 46°30' W 001°47'0 0.0
2016-Jul-21 09:33N 46°30' W 001°47'0 0.0
2016-Jul-21 08:33N 46°30' W 001°47'0 0.0
2016-Jul-21 07:33N 46°30' W 001°47'0 0.0
2016-Jul-21 06:31N 46°30' W 001°47'0 0.0
2016-Jul-21 05:33N 46°30' W 001°47'0 0.0
2016-Jul-21 04:33N 46°30' W 001°47'0 0.0
2016-Jul-21 03:33N 46°30' W 001°47'0 0.0
2016-Jul-21 02:33N 46°30' W 001°47'0 0.0
2016-Jul-21 01:34N 46°30' W 001°47'0 0.0
2016-Jul-21 00:33N 46°30' W 001°47'0 0.0
2016-Jul-20 23:33N 46°30' W 001°47'0 0.0
2016-Jul-20 22:33N 46°30' W 001°47'0 0.0
2016-Jul-20 21:33N 46°30' W 001°47'0 0.0
2016-Jul-20 20:33N 46°30' W 001°47'0 0.0
2016-Jul-20 19:33N 46°30' W 001°47'0 0.0
2016-Jul-20 18:33N 46°30' W 001°47'0 0.0
2016-Jul-20 17:33N 46°30' W 001°47'0 0.0
2016-Jul-20 16:33N 46°30' W 001°47'5 5.3
2016-Jul-20 15:33N 46°27' W 001°54'5 5.0
2016-Jul-20 14:33N 46°29' W 001°47'1 1.1
2016-Jul-20 13:33N 46°30' W 001°47'0 0.0
2016-Jul-20 12:33N 46°30' W 001°47'0 0.0
2016-Jul-20 11:33N 46°30' W 001°47'0 0.0
2016-Jul-20 10:33N 46°30' W 001°47'0 0.0
2016-Jul-20 09:34N 46°30' W 001°47'0 0.1
2016-Jul-20 08:33N 46°30' W 001°47'0 0.0
2016-Jul-20 07:18N 46°30' W 001°47'0 0.0
2016-Jul-20 06:34N 46°30' W 001°47'0 0.0
2016-Jul-20 05:33N 46°30' W 001°47'0 0.0
2016-Jul-20 04:32N 46°30' W 001°47'0 0.0
2016-Jul-20 03:32N 46°30' W 001°47'0 0.0
2016-Jul-20 02:34N 46°30' W 001°47'0 0.0
2016-Jul-20 01:33N 46°30' W 001°47'0 0.0
2016-Jul-20 00:33N 46°30' W 001°47'0 0.0
2016-Jul-19 23:33N 46°30' W 001°47'0 0.0
2016-Jul-19 22:33N 46°30' W 001°47'0 0.0
2016-Jul-19 21:33N 46°30' W 001°47'0 0.0
2016-Jul-19 20:30N 46°30' W 001°47'0 0.0
2016-Jul-19 19:33N 46°30' W 001°47'0 0.0
2016-Jul-19 18:15N 46°30' W 001°47'0 0.0
2016-Jul-19 17:25N 46°30' W 001°47'0 0.0
2016-Jul-19 16:24N 46°30' W 001°47'0 0.0
2016-Jul-19 14:24N 46°30' W 001°47'0 0.0
2016-Jul-19 13:33N 46°30' W 001°47'0 0.0
2016-Jul-19 12:33N 46°30' W 001°47'0 0.0
2016-Jul-19 11:33N 46°30' W 001°47'0 0.0
2016-Jul-19 10:33N 46°30' W 001°47'0 0.0
2016-Jul-19 09:33N 46°30' W 001°47'0 0.0
2016-Jul-19 08:33N 46°30' W 001°47'0 0.0
2016-Jul-19 07:33N 46°30' W 001°47'0 0.0
2016-Jul-19 06:33N 46°30' W 001°47'  

Dump ship's entire track history